sensor_id;sensor_type;location;lat;lon;timestamp;P1;durP1;ratioP1;P2;durP2;ratioP2
27495;SDS011;14929;51.336;9.416;2022-12-07T00:00:55;5.40;;;4.55;;
27495;SDS011;14929;51.336;9.416;2022-12-07T00:03:30;3.60;;;3.30;;
27495;SDS011;14929;51.336;9.416;2022-12-07T00:05:57;4.05;;;3.65;;
27495;SDS011;14929;51.336;9.416;2022-12-07T00:08:25;3.45;;;3.15;;
27495;SDS011;14929;51.336;9.416;2022-12-07T00:10:53;3.65;;;3.00;;
27495;SDS011;14929;51.336;9.416;2022-12-07T00:13:20;3.58;;;3.28;;
27495;SDS011;14929;51.336;9.416;2022-12-07T00:15:50;3.10;;;2.90;;
27495;SDS011;14929;51.336;9.416;2022-12-07T00:18:17;3.45;;;3.15;;
27495;SDS011;14929;51.336;9.416;2022-12-07T00:20:45;3.05;;;2.75;;
27495;SDS011;14929;51.336;9.416;2022-12-07T00:23:12;3.72;;;3.42;;
27495;SDS011;14929;51.336;9.416;2022-12-07T00:25:40;3.70;;;3.40;;
27495;SDS011;14929;51.336;9.416;2022-12-07T00:28:07;4.20;;;3.80;;
27495;SDS011;14929;51.336;9.416;2022-12-07T00:30:35;3.28;;;2.97;;
27495;SDS011;14929;51.336;9.416;2022-12-07T00:33:04;4.28;;;3.88;;
27495;SDS011;14929;51.336;9.416;2022-12-07T00:35:32;4.60;;;4.20;;
27495;SDS011;14929;51.336;9.416;2022-12-07T00:37:59;4.50;;;4.03;;
27495;SDS011;14929;51.336;9.416;2022-12-07T00:40:27;3.60;;;3.28;;
27495;SDS011;14929;51.336;9.416;2022-12-07T00:42:54;3.55;;;3.25;;
27495;SDS011;14929;51.336;9.416;2022-12-07T00:45:22;3.30;;;3.00;;
27495;SDS011;14929;51.336;9.416;2022-12-07T00:47:49;3.60;;;3.30;;
27495;SDS011;14929;51.336;9.416;2022-12-07T00:50:21;3.00;;;2.80;;
27495;SDS011;14929;51.336;9.416;2022-12-07T00:52:49;2.75;;;2.55;;
27495;SDS011;14929;51.336;9.416;2022-12-07T00:55:17;4.38;;;2.65;;
27495;SDS011;14929;51.336;9.416;2022-12-07T00:57:44;3.90;;;3.60;;
27495;SDS011;14929;51.336;9.416;2022-12-07T01:00:12;4.65;;;4.25;;
27495;SDS011;14929;51.336;9.416;2022-12-07T01:02:40;4.72;;;4.32;;
27495;SDS011;14929;51.336;9.416;2022-12-07T01:05:08;5.13;;;4.72;;
27495;SDS011;14929;51.336;9.416;2022-12-07T01:07:37;5.40;;;4.90;;
27495;SDS011;14929;51.336;9.416;2022-12-07T01:10:05;5.53;;;5.03;;
27495;SDS011;14929;51.336;9.416;2022-12-07T01:12:34;5.30;;;4.80;;
27495;SDS011;14929;51.336;9.416;2022-12-07T01:15:01;4.07;;;3.35;;
27495;SDS011;14929;51.336;9.416;2022-12-07T01:17:29;4.68;;;4.15;;
27495;SDS011;14929;51.336;9.416;2022-12-07T01:19:57;3.25;;;2.95;;
27495;SDS011;14929;51.336;9.416;2022-12-07T01:22:24;3.83;;;3.50;;
27495;SDS011;14929;51.336;9.416;2022-12-07T01:24:53;3.33;;;3.03;;
27495;SDS011;14929;51.336;9.416;2022-12-07T01:27:21;3.00;;;2.80;;
27495;SDS011;14929;51.336;9.416;2022-12-07T01:29:49;2.92;;;2.72;;
27495;SDS011;14929;51.336;9.416;2022-12-07T01:32:18;3.70;;;3.20;;
27495;SDS011;14929;51.336;9.416;2022-12-07T01:34:47;3.83;;;3.53;;
27495;SDS011;14929;51.336;9.416;2022-12-07T01:37:14;3.78;;;3.45;;
27495;SDS011;14929;51.336;9.416;2022-12-07T01:39:42;4.05;;;3.55;;
27495;SDS011;14929;51.336;9.416;2022-12-07T01:42:11;4.38;;;3.92;;
27495;SDS011;14929;51.336;9.416;2022-12-07T01:47:59;3.72;;;3.42;;
27495;SDS011;14929;51.336;9.416;2022-12-07T01:50:27;3.50;;;3.20;;
27495;SDS011;14929;51.336;9.416;2022-12-07T01:52:57;2.60;;;2.40;;
27495;SDS011;14929;51.336;9.416;2022-12-07T01:55:25;4.72;;;4.15;;
27495;SDS011;14929;51.336;9.416;2022-12-07T01:57:55;3.85;;;3.55;;
27495;SDS011;14929;51.336;9.416;2022-12-07T02:00:22;3.20;;;2.90;;
27495;SDS011;14929;51.336;9.416;2022-12-07T02:02:51;3.67;;;3.38;;
27495;SDS011;14929;51.336;9.416;2022-12-07T02:05:22;3.40;;;2.58;;
27495;SDS011;14929;51.336;9.416;2022-12-07T02:07:51;4.75;;;4.35;;
27495;SDS011;14929;51.336;9.416;2022-12-07T02:10:22;3.70;;;2.72;;
27495;SDS011;14929;51.336;9.416;2022-12-07T02:12:58;4.10;;;3.80;;
27495;SDS011;14929;51.336;9.416;2022-12-07T02:15:29;2.55;;;2.35;;
27495;SDS011;14929;51.336;9.416;2022-12-07T02:18:09;3.40;;;3.10;;
27495;SDS011;14929;51.336;9.416;2022-12-07T02:20:43;3.45;;;3.15;;
27495;SDS011;14929;51.336;9.416;2022-12-07T02:23:36;3.70;;;3.40;;
27495;SDS011;14929;51.336;9.416;2022-12-07T02:26:35;3.38;;;3.10;;
27495;SDS011;14929;51.336;9.416;2022-12-07T02:29:45;4.10;;;3.70;;
27495;SDS011;14929;51.336;9.416;2022-12-07T02:32:16;4.10;;;3.67;;
27495;SDS011;14929;51.336;9.416;2022-12-07T02:34:49;3.50;;;3.20;;
27495;SDS011;14929;51.336;9.416;2022-12-07T02:37:19;4.57;;;4.18;;
27495;SDS011;14929;51.336;9.416;2022-12-07T02:39:57;4.70;;;4.30;;
27495;SDS011;14929;51.336;9.416;2022-12-07T02:42:28;6.03;;;5.43;;
27495;SDS011;14929;51.336;9.416;2022-12-07T02:45:00;5.85;;;5.30;;
27495;SDS011;14929;51.336;9.416;2022-12-07T02:47:28;5.20;;;4.70;;
27495;SDS011;14929;51.336;9.416;2022-12-07T02:49:56;5.60;;;5.10;;
27495;SDS011;14929;51.336;9.416;2022-12-07T02:52:24;7.35;;;6.65;;
27495;SDS011;14929;51.336;9.416;2022-12-07T02:54:51;6.63;;;5.75;;
27495;SDS011;14929;51.336;9.416;2022-12-07T02:57:26;6.80;;;6.20;;
27495;SDS011;14929;51.336;9.416;2022-12-07T03:00:09;6.97;;;6.38;;
27495;SDS011;14929;51.336;9.416;2022-12-07T03:02:42;5.75;;;5.13;;
27495;SDS011;14929;51.336;9.416;2022-12-07T03:08:25;5.28;;;4.78;;
27495;SDS011;14929;51.336;9.416;2022-12-07T03:10:58;7.53;;;5.30;;
27495;SDS011;14929;51.336;9.416;2022-12-07T03:13:29;6.93;;;6.22;;
27495;SDS011;14929;51.336;9.416;2022-12-07T03:16:04;4.65;;;4.25;;
27495;SDS011;14929;51.336;9.416;2022-12-07T03:18:37;6.03;;;5.40;;
27495;SDS011;14929;51.336;9.416;2022-12-07T03:21:12;5.95;;;5.18;;
27495;SDS011;14929;51.336;9.416;2022-12-07T03:23:44;6.25;;;5.65;;
27495;SDS011;14929;51.336;9.416;2022-12-07T03:26:16;7.00;;;6.28;;
27495;SDS011;14929;51.336;9.416;2022-12-07T03:28:45;4.45;;;4.00;;
27495;SDS011;14929;51.336;9.416;2022-12-07T03:31:17;4.55;;;4.07;;
27495;SDS011;14929;51.336;9.416;2022-12-07T03:33:48;5.38;;;4.82;;
27495;SDS011;14929;51.336;9.416;2022-12-07T03:36:20;5.28;;;4.78;;
27495;SDS011;14929;51.336;9.416;2022-12-07T03:38:50;4.70;;;4.30;;
27495;SDS011;14929;51.336;9.416;2022-12-07T03:41:24;4.07;;;3.67;;
27495;SDS011;14929;51.336;9.416;2022-12-07T03:43:54;5.07;;;4.60;;
27495;SDS011;14929;51.336;9.416;2022-12-07T03:46:27;4.00;;;3.67;;
27495;SDS011;14929;51.336;9.416;2022-12-07T03:49:03;4.88;;;4.25;;
27495;SDS011;14929;51.336;9.416;2022-12-07T03:51:38;5.88;;;3.70;;
27495;SDS011;14929;51.336;9.416;2022-12-07T03:54:10;5.55;;;5.05;;
27495;SDS011;14929;51.336;9.416;2022-12-07T03:56:43;5.53;;;5.03;;
27495;SDS011;14929;51.336;9.416;2022-12-07T03:59:11;6.35;;;5.65;;
27495;SDS011;14929;51.336;9.416;2022-12-07T04:01:42;6.63;;;6.00;;
27495;SDS011;14929;51.336;9.416;2022-12-07T04:04:10;8.00;;;7.05;;
27495;SDS011;14929;51.336;9.416;2022-12-07T04:06:38;7.38;;;6.35;;
27495;SDS011;14929;51.336;9.416;2022-12-07T04:09:05;7.03;;;6.13;;
27495;SDS011;14929;51.336;9.416;2022-12-07T04:11:33;6.47;;;5.88;;
27495;SDS011;14929;51.336;9.416;2022-12-07T04:14:00;7.88;;;6.78;;
27495;SDS011;14929;51.336;9.416;2022-12-07T04:16:48;11.65;;;8.35;;
27495;SDS011;14929;51.336;9.416;2022-12-07T04:19:17;5.28;;;4.72;;
27495;SDS011;14929;51.336;9.416;2022-12-07T04:21:46;5.43;;;4.95;;
27495;SDS011;14929;51.336;9.416;2022-12-07T04:24:14;6.32;;;5.43;;
27495;SDS011;14929;51.336;9.416;2022-12-07T04:26:43;8.32;;;7.10;;
27495;SDS011;14929;51.336;9.416;2022-12-07T04:29:12;6.28;;;5.75;;
27495;SDS011;14929;51.336;9.416;2022-12-07T04:31:40;7.53;;;6.75;;
27495;SDS011;14929;51.336;9.416;2022-12-07T04:34:10;6.45;;;5.78;;
27495;SDS011;14929;51.336;9.416;2022-12-07T04:36:38;8.18;;;6.85;;
27495;SDS011;14929;51.336;9.416;2022-12-07T04:39:07;7.05;;;6.30;;
27495;SDS011;14929;51.336;9.416;2022-12-07T04:41:43;7.80;;;7.05;;
27495;SDS011;14929;51.336;9.416;2022-12-07T04:44:14;7.55;;;6.30;;
27495;SDS011;14929;51.336;9.416;2022-12-07T04:46:42;6.78;;;6.07;;
27495;SDS011;14929;51.336;9.416;2022-12-07T04:49:12;8.48;;;6.68;;
27495;SDS011;14929;51.336;9.416;2022-12-07T04:51:40;7.35;;;6.65;;
27495;SDS011;14929;51.336;9.416;2022-12-07T04:54:08;6.47;;;5.50;;
27495;SDS011;14929;51.336;9.416;2022-12-07T04:56:36;6.28;;;5.68;;
27495;SDS011;14929;51.336;9.416;2022-12-07T04:59:04;7.60;;;6.63;;
27495;SDS011;14929;51.336;9.416;2022-12-07T05:01:31;8.80;;;6.88;;
27495;SDS011;14929;51.336;9.416;2022-12-07T05:03:59;12.55;;;6.25;;
27495;SDS011;14929;51.336;9.416;2022-12-07T05:06:28;7.80;;;5.80;;
27495;SDS011;14929;51.336;9.416;2022-12-07T05:08:56;8.65;;;6.88;;
27495;SDS011;14929;51.336;9.416;2022-12-07T05:11:23;8.75;;;6.07;;
27495;SDS011;14929;51.336;9.416;2022-12-07T05:14:07;8.27;;;6.35;;
27495;SDS011;14929;51.336;9.416;2022-12-07T05:16:38;6.25;;;4.78;;
27495;SDS011;14929;51.336;9.416;2022-12-07T05:19:06;8.38;;;5.97;;
27495;SDS011;14929;51.336;9.416;2022-12-07T05:21:36;6.68;;;5.97;;
27495;SDS011;14929;51.336;9.416;2022-12-07T05:24:04;8.32;;;5.75;;
27495;SDS011;14929;51.336;9.416;2022-12-07T05:26:33;17.00;;;6.20;;
27495;SDS011;14929;51.336;9.416;2022-12-07T05:29:00;13.60;;;5.70;;
27495;SDS011;14929;51.336;9.416;2022-12-07T05:31:28;4.18;;;3.88;;
27495;SDS011;14929;51.336;9.416;2022-12-07T05:33:55;5.43;;;4.90;;
27495;SDS011;14929;51.336;9.416;2022-12-07T05:36:23;6.40;;;5.63;;
27495;SDS011;14929;51.336;9.416;2022-12-07T05:38:54;8.07;;;6.15;;
27495;SDS011;14929;51.336;9.416;2022-12-07T05:41:22;6.72;;;5.35;;
27495;SDS011;14929;51.336;9.416;2022-12-07T05:44:07;8.38;;;5.78;;
27495;SDS011;14929;51.336;9.416;2022-12-07T05:46:34;8.00;;;5.82;;
27495;SDS011;14929;51.336;9.416;2022-12-07T05:49:02;8.93;;;6.20;;
27495;SDS011;14929;51.336;9.416;2022-12-07T05:51:30;6.10;;;5.47;;
27495;SDS011;14929;51.336;9.416;2022-12-07T05:53:59;8.25;;;5.53;;
27495;SDS011;14929;51.336;9.416;2022-12-07T05:56:26;8.27;;;5.50;;
27495;SDS011;14929;51.336;9.416;2022-12-07T05:58:54;6.22;;;5.43;;
27495;SDS011;14929;51.336;9.416;2022-12-07T06:01:41;5.20;;;4.75;;
27495;SDS011;14929;51.336;9.416;2022-12-07T06:04:08;5.82;;;4.88;;
27495;SDS011;14929;51.336;9.416;2022-12-07T06:06:36;5.40;;;4.90;;
27495;SDS011;14929;51.336;9.416;2022-12-07T06:09:05;7.70;;;5.20;;
27495;SDS011;14929;51.336;9.416;2022-12-07T06:11:32;4.35;;;3.65;;
27495;SDS011;14929;51.336;9.416;2022-12-07T06:14:18;4.80;;;4.40;;
27495;SDS011;14929;51.336;9.416;2022-12-07T06:16:45;5.10;;;4.70;;
27495;SDS011;14929;51.336;9.416;2022-12-07T06:19:13;7.43;;;4.85;;
27495;SDS011;14929;51.336;9.416;2022-12-07T06:21:40;6.55;;;5.70;;
27495;SDS011;14929;51.336;9.416;2022-12-07T06:24:10;9.00;;;4.80;;
27495;SDS011;14929;51.336;9.416;2022-12-07T06:26:39;5.32;;;4.60;;
27495;SDS011;14929;51.336;9.416;2022-12-07T06:29:06;4.75;;;4.18;;
27495;SDS011;14929;51.336;9.416;2022-12-07T06:31:34;5.80;;;4.30;;
27495;SDS011;14929;51.336;9.416;2022-12-07T06:34:03;5.22;;;4.10;;
27495;SDS011;14929;51.336;9.416;2022-12-07T06:36:33;5.22;;;3.50;;
27495;SDS011;14929;51.336;9.416;2022-12-07T06:39:00;5.50;;;5.00;;
27495;SDS011;14929;51.336;9.416;2022-12-07T06:41:30;5.95;;;4.72;;
27495;SDS011;14929;51.336;9.416;2022-12-07T06:43:58;6.57;;;4.95;;
27495;SDS011;14929;51.336;9.416;2022-12-07T06:46:25;3.30;;;3.00;;
27495;SDS011;14929;51.336;9.416;2022-12-07T06:48:53;3.75;;;3.03;;
27495;SDS011;14929;51.336;9.416;2022-12-07T06:51:20;3.92;;;3.58;;
27495;SDS011;14929;51.336;9.416;2022-12-07T06:53:48;4.50;;;3.85;;
27495;SDS011;14929;51.336;9.416;2022-12-07T06:56:16;4.90;;;3.72;;
27495;SDS011;14929;51.336;9.416;2022-12-07T06:58:44;5.10;;;4.60;;
27495;SDS011;14929;51.336;9.416;2022-12-07T07:01:13;4.28;;;3.85;;
27495;SDS011;14929;51.336;9.416;2022-12-07T07:03:42;3.67;;;3.38;;
27495;SDS011;14929;51.336;9.416;2022-12-07T07:06:10;6.28;;;4.20;;
27495;SDS011;14929;51.336;9.416;2022-12-07T07:08:38;4.13;;;3.72;;
27495;SDS011;14929;51.336;9.416;2022-12-07T07:11:06;5.38;;;4.57;;
27495;SDS011;14929;51.336;9.416;2022-12-07T07:13:34;3.47;;;3.17;;
27495;SDS011;14929;51.336;9.416;2022-12-07T07:16:04;6.75;;;4.47;;
27495;SDS011;14929;51.336;9.416;2022-12-07T07:18:33;9.05;;;4.22;;
27495;SDS011;14929;51.336;9.416;2022-12-07T07:21:00;5.45;;;4.20;;
27495;SDS011;14929;51.336;9.416;2022-12-07T07:23:28;7.88;;;4.53;;
27495;SDS011;14929;51.336;9.416;2022-12-07T07:25:56;5.75;;;4.43;;
27495;SDS011;14929;51.336;9.416;2022-12-07T07:28:23;6.45;;;4.47;;
27495;SDS011;14929;51.336;9.416;2022-12-07T07:30:51;5.10;;;4.57;;
27495;SDS011;14929;51.336;9.416;2022-12-07T07:33:20;3.45;;;3.15;;
27495;SDS011;14929;51.336;9.416;2022-12-07T07:35:47;3.40;;;3.10;;
27495;SDS011;14929;51.336;9.416;2022-12-07T07:38:15;4.07;;;3.22;;
27495;SDS011;14929;51.336;9.416;2022-12-07T07:40:42;3.45;;;3.03;;
27495;SDS011;14929;51.336;9.416;2022-12-07T07:43:10;5.72;;;4.90;;
27495;SDS011;14929;51.336;9.416;2022-12-07T07:45:37;4.50;;;3.65;;
27495;SDS011;14929;51.336;9.416;2022-12-07T07:48:05;5.22;;;3.83;;
27495;SDS011;14929;51.336;9.416;2022-12-07T07:50:34;7.72;;;4.95;;
27495;SDS011;14929;51.336;9.416;2022-12-07T07:53:02;3.80;;;3.33;;
27495;SDS011;14929;51.336;9.416;2022-12-07T07:55:29;5.30;;;3.72;;
27495;SDS011;14929;51.336;9.416;2022-12-07T07:57:56;8.15;;;4.63;;
27495;SDS011;14929;51.336;9.416;2022-12-07T08:00:24;5.47;;;3.95;;
27495;SDS011;14929;51.336;9.416;2022-12-07T08:02:52;6.65;;;4.13;;
27495;SDS011;14929;51.336;9.416;2022-12-07T08:05:19;4.30;;;3.90;;
27495;SDS011;14929;51.336;9.416;2022-12-07T08:07:48;4.72;;;3.65;;
27495;SDS011;14929;51.336;9.416;2022-12-07T08:10:15;3.50;;;3.20;;
27495;SDS011;14929;51.336;9.416;2022-12-07T08:12:43;4.68;;;3.30;;
27495;SDS011;14929;51.336;9.416;2022-12-07T08:15:29;3.85;;;3.08;;
27495;SDS011;14929;51.336;9.416;2022-12-07T08:17:57;3.72;;;3.30;;
27495;SDS011;14929;51.336;9.416;2022-12-07T08:20:25;3.80;;;3.00;;
27495;SDS011;14929;51.336;9.416;2022-12-07T08:22:54;3.25;;;2.95;;
27495;SDS011;14929;51.336;9.416;2022-12-07T08:25:21;3.25;;;2.88;;
27495;SDS011;14929;51.336;9.416;2022-12-07T08:27:49;2.70;;;2.50;;
27495;SDS011;14929;51.336;9.416;2022-12-07T08:30:18;2.42;;;2.22;;
27495;SDS011;14929;51.336;9.416;2022-12-07T08:32:46;4.80;;;3.72;;
27495;SDS011;14929;51.336;9.416;2022-12-07T08:35:14;4.20;;;3.22;;
27495;SDS011;14929;51.336;9.416;2022-12-07T08:37:42;3.95;;;3.55;;
27495;SDS011;14929;51.336;9.416;2022-12-07T08:40:11;2.85;;;2.65;;
27495;SDS011;14929;51.336;9.416;2022-12-07T08:42:41;3.78;;;2.92;;
27495;SDS011;14929;51.336;9.416;2022-12-07T08:45:10;3.95;;;3.13;;
27495;SDS011;14929;51.336;9.416;2022-12-07T08:47:40;5.70;;;3.10;;
27495;SDS011;14929;51.336;9.416;2022-12-07T08:50:12;3.58;;;3.28;;
27495;SDS011;14929;51.336;9.416;2022-12-07T08:52:39;6.28;;;3.95;;
27495;SDS011;14929;51.336;9.416;2022-12-07T08:55:08;5.72;;;3.92;;
27495;SDS011;14929;51.336;9.416;2022-12-07T08:57:38;3.90;;;3.50;;
27495;SDS011;14929;51.336;9.416;2022-12-07T09:00:08;4.55;;;4.15;;
27495;SDS011;14929;51.336;9.416;2022-12-07T09:02:37;4.00;;;3.58;;
27495;SDS011;14929;51.336;9.416;2022-12-07T09:05:04;9.35;;;3.55;;
27495;SDS011;14929;51.336;9.416;2022-12-07T09:07:33;5.60;;;2.97;;
27495;SDS011;14929;51.336;9.416;2022-12-07T09:10:01;3.67;;;3.03;;
27495;SDS011;14929;51.336;9.416;2022-12-07T09:12:30;3.78;;;3.33;;
27495;SDS011;14929;51.336;9.416;2022-12-07T09:14:58;3.58;;;3.17;;
27495;SDS011;14929;51.336;9.416;2022-12-07T09:17:26;4.57;;;3.45;;
27495;SDS011;14929;51.336;9.416;2022-12-07T09:19:54;4.93;;;3.45;;
27495;SDS011;14929;51.336;9.416;2022-12-07T09:22:21;6.68;;;4.20;;
27495;SDS011;14929;51.336;9.416;2022-12-07T09:24:49;3.85;;;3.20;;
27495;SDS011;14929;51.336;9.416;2022-12-07T09:27:16;7.90;;;3.58;;
27495;SDS011;14929;51.336;9.416;2022-12-07T09:29:45;4.13;;;2.63;;
27495;SDS011;14929;51.336;9.416;2022-12-07T09:32:12;2.67;;;2.47;;
27495;SDS011;14929;51.336;9.416;2022-12-07T09:34:43;2.30;;;2.10;;
27495;SDS011;14929;51.336;9.416;2022-12-07T09:37:11;4.90;;;2.83;;
27495;SDS011;14929;51.336;9.416;2022-12-07T09:39:38;3.65;;;2.80;;
27495;SDS011;14929;51.336;9.416;2022-12-07T09:42:07;3.35;;;2.17;;
27495;SDS011;14929;51.336;9.416;2022-12-07T09:44:36;4.00;;;2.33;;
27495;SDS011;14929;51.336;9.416;2022-12-07T09:47:08;4.70;;;2.70;;
27495;SDS011;14929;51.336;9.416;2022-12-07T09:49:36;3.60;;;2.40;;
27495;SDS011;14929;51.336;9.416;2022-12-07T09:52:16;2.45;;;2.25;;
27495;SDS011;14929;51.336;9.416;2022-12-07T09:54:46;2.38;;;2.03;;
27495;SDS011;14929;51.336;9.416;2022-12-07T09:57:15;4.60;;;3.10;;
27495;SDS011;14929;51.336;9.416;2022-12-07T09:59:43;2.50;;;2.05;;
27495;SDS011;14929;51.336;9.416;2022-12-07T10:02:22;4.95;;;2.70;;
27495;SDS011;14929;51.336;9.416;2022-12-07T10:04:57;4.50;;;2.53;;
27495;SDS011;14929;51.336;9.416;2022-12-07T10:07:25;3.03;;;2.30;;
27495;SDS011;14929;51.336;9.416;2022-12-07T10:09:52;4.05;;;2.15;;
27495;SDS011;14929;51.336;9.416;2022-12-07T10:12:20;3.67;;;2.38;;
27495;SDS011;14929;51.336;9.416;2022-12-07T10:14:54;4.80;;;2.40;;
27495;SDS011;14929;51.336;9.416;2022-12-07T10:17:30;1.90;;;1.77;;
27495;SDS011;14929;51.336;9.416;2022-12-07T10:20:16;2.42;;;2.22;;
27495;SDS011;14929;51.336;9.416;2022-12-07T10:23:00;2.30;;;2.03;;
27495;SDS011;14929;51.336;9.416;2022-12-07T10:25:30;2.30;;;1.65;;
27495;SDS011;14929;51.336;9.416;2022-12-07T10:27:59;4.55;;;2.35;;
27495;SDS011;14929;51.336;9.416;2022-12-07T10:30:45;1.90;;;1.80;;
27495;SDS011;14929;51.336;9.416;2022-12-07T10:33:29;8.68;;;2.50;;
27495;SDS011;14929;51.336;9.416;2022-12-07T10:36:00;3.70;;;1.80;;
27495;SDS011;14929;51.336;9.416;2022-12-07T10:38:44;2.97;;;1.73;;
27495;SDS011;14929;51.336;9.416;2022-12-07T10:41:14;2.03;;;1.80;;
27495;SDS011;14929;51.336;9.416;2022-12-07T10:43:51;2.50;;;1.85;;
27495;SDS011;14929;51.336;9.416;2022-12-07T10:46:26;2.58;;;1.88;;
27495;SDS011;14929;51.336;9.416;2022-12-07T10:49:31;1.90;;;1.55;;
27495;SDS011;14929;51.336;9.416;2022-12-07T10:52:42;4.10;;;2.30;;
27495;SDS011;14929;51.336;9.416;2022-12-07T10:55:20;3.42;;;2.25;;
27495;SDS011;14929;51.336;9.416;2022-12-07T10:57:55;2.40;;;2.00;;
27495;SDS011;14929;51.336;9.416;2022-12-07T11:00:39;1.50;;;1.40;;
27495;SDS011;14929;51.336;9.416;2022-12-07T11:03:17;2.03;;;1.40;;
27495;SDS011;14929;51.336;9.416;2022-12-07T11:05:59;3.17;;;2.00;;
27495;SDS011;14929;51.336;9.416;2022-12-07T11:08:43;2.35;;;1.80;;
27495;SDS011;14929;51.336;9.416;2022-12-07T11:11:23;5.25;;;2.10;;
27495;SDS011;14929;51.336;9.416;2022-12-07T11:14:00;2.72;;;1.85;;
27495;SDS011;14929;51.336;9.416;2022-12-07T11:16:41;4.45;;;2.08;;
27495;SDS011;14929;51.336;9.416;2022-12-07T11:19:31;2.95;;;1.88;;
27495;SDS011;14929;51.336;9.416;2022-12-07T11:22:18;1.73;;;1.63;;
27495;SDS011;14929;51.336;9.416;2022-12-07T11:24:50;4.95;;;3.90;;
27495;SDS011;14929;51.336;9.416;2022-12-07T11:27:25;4.30;;;3.72;;
27495;SDS011;14929;51.336;9.416;2022-12-07T11:30:14;3.47;;;2.60;;
27495;SDS011;14929;51.336;9.416;2022-12-07T11:35:42;2.97;;;2.00;;
27495;SDS011;14929;51.336;9.416;2022-12-07T11:38:20;4.15;;;2.15;;
27495;SDS011;14929;51.336;9.416;2022-12-07T11:40:51;3.65;;;1.60;;
27495;SDS011;14929;51.336;9.416;2022-12-07T11:43:22;1.90;;;1.80;;
27495;SDS011;14929;51.336;9.416;2022-12-07T11:45:55;3.92;;;2.13;;
27495;SDS011;14929;51.336;9.416;2022-12-07T11:48:29;2.67;;;2.20;;
27495;SDS011;14929;51.336;9.416;2022-12-07T11:51:00;3.78;;;2.75;;
27495;SDS011;14929;51.336;9.416;2022-12-07T11:53:31;3.78;;;1.90;;
27495;SDS011;14929;51.336;9.416;2022-12-07T11:56:03;2.25;;;1.80;;
27495;SDS011;14929;51.336;9.416;2022-12-07T11:58:39;1.95;;;1.85;;
27495;SDS011;14929;51.336;9.416;2022-12-07T12:01:20;1.35;;;1.30;;
27495;SDS011;14929;51.336;9.416;2022-12-07T12:04:19;4.50;;;2.25;;
27495;SDS011;14929;51.336;9.416;2022-12-07T12:06:55;5.03;;;1.80;;
27495;SDS011;14929;51.336;9.416;2022-12-07T12:09:25;2.45;;;1.88;;
27495;SDS011;14929;51.336;9.416;2022-12-07T12:12:10;4.38;;;1.90;;
27495;SDS011;14929;51.336;9.416;2022-12-07T12:14:55;5.68;;;2.15;;
27495;SDS011;14929;51.336;9.416;2022-12-07T12:17:36;2.30;;;1.88;;
27495;SDS011;14929;51.336;9.416;2022-12-07T12:20:48;3.40;;;1.85;;
27495;SDS011;14929;51.336;9.416;2022-12-07T12:23:20;2.10;;;1.50;;
27495;SDS011;14929;51.336;9.416;2022-12-07T12:25:50;3.13;;;1.92;;
27495;SDS011;14929;51.336;9.416;2022-12-07T12:28:23;2.05;;;1.80;;
27495;SDS011;14929;51.336;9.416;2022-12-07T12:31:05;2.78;;;1.63;;
27495;SDS011;14929;51.336;9.416;2022-12-07T12:33:36;4.55;;;1.80;;
27495;SDS011;14929;51.336;9.416;2022-12-07T12:36:23;5.40;;;2.70;;
27495;SDS011;14929;51.336;9.416;2022-12-07T12:39:07;3.10;;;2.10;;
27495;SDS011;14929;51.336;9.416;2022-12-07T12:41:52;3.35;;;1.45;;
27495;SDS011;14929;51.336;9.416;2022-12-07T12:47:52;2.38;;;1.42;;
27495;SDS011;14929;51.336;9.416;2022-12-07T12:50:26;2.03;;;1.83;;
27495;SDS011;14929;51.336;9.416;2022-12-07T12:53:05;1.85;;;1.70;;
27495;SDS011;14929;51.336;9.416;2022-12-07T12:55:49;3.92;;;1.27;;
27495;SDS011;14929;51.336;9.416;2022-12-07T12:58:51;2.45;;;1.50;;
27495;SDS011;14929;51.336;9.416;2022-12-07T13:10:37;2.33;;;1.92;;
27495;SDS011;14929;51.336;9.416;2022-12-07T13:22:37;1.48;;;1.38;;
27495;SDS011;14929;51.336;9.416;2022-12-07T13:25:18;4.30;;;2.30;;
27495;SDS011;14929;51.336;9.416;2022-12-07T13:27:57;1.42;;;1.30;;
27495;SDS011;14929;51.336;9.416;2022-12-07T13:30:28;2.80;;;1.95;;
27495;SDS011;14929;51.336;9.416;2022-12-07T13:32:58;1.80;;;1.70;;
27495;SDS011;14929;51.336;9.416;2022-12-07T13:35:30;3.08;;;2.00;;
27495;SDS011;14929;51.336;9.416;2022-12-07T13:38:04;3.15;;;1.40;;
27495;SDS011;14929;51.336;9.416;2022-12-07T13:40:41;3.72;;;1.92;;
27495;SDS011;14929;51.336;9.416;2022-12-07T13:43:12;2.58;;;1.73;;
27495;SDS011;14929;51.336;9.416;2022-12-07T13:45:41;2.60;;;1.77;;
27495;SDS011;14929;51.336;9.416;2022-12-07T13:48:18;2.75;;;1.75;;
27495;SDS011;14929;51.336;9.416;2022-12-07T13:50:54;4.25;;;2.00;;
27495;SDS011;14929;51.336;9.416;2022-12-07T13:53:22;2.60;;;2.22;;
27495;SDS011;14929;51.336;9.416;2022-12-07T13:55:53;2.17;;;1.98;;
27495;SDS011;14929;51.336;9.416;2022-12-07T13:58:21;2.63;;;1.92;;
27495;SDS011;14929;51.336;9.416;2022-12-07T14:00:49;1.60;;;1.50;;
27495;SDS011;14929;51.336;9.416;2022-12-07T14:03:25;3.50;;;2.22;;
27495;SDS011;14929;51.336;9.416;2022-12-07T14:06:04;4.40;;;2.00;;
27495;SDS011;14929;51.336;9.416;2022-12-07T14:08:42;2.92;;;1.90;;
27495;SDS011;14929;51.336;9.416;2022-12-07T14:11:13;3.42;;;2.00;;
27495;SDS011;14929;51.336;9.416;2022-12-07T14:13:56;2.72;;;1.85;;
27495;SDS011;14929;51.336;9.416;2022-12-07T14:16:27;2.97;;;2.35;;
27495;SDS011;14929;51.336;9.416;2022-12-07T14:18:58;1.80;;;1.63;;
27495;SDS011;14929;51.336;9.416;2022-12-07T14:21:27;2.05;;;1.30;;
27495;SDS011;14929;51.336;9.416;2022-12-07T14:24:09;2.78;;;2.17;;
27495;SDS011;14929;51.336;9.416;2022-12-07T14:26:43;1.30;;;1.30;;
27495;SDS011;14929;51.336;9.416;2022-12-07T14:32:11;3.35;;;1.67;;
27495;SDS011;14929;51.336;9.416;2022-12-07T14:35:02;3.20;;;1.80;;
27495;SDS011;14929;51.336;9.416;2022-12-07T14:37:35;2.95;;;2.30;;
27495;SDS011;14929;51.336;9.416;2022-12-07T14:40:04;5.13;;;3.00;;
27495;SDS011;14929;51.336;9.416;2022-12-07T14:42:33;4.65;;;3.00;;
27495;SDS011;14929;51.336;9.416;2022-12-07T14:45:01;4.20;;;3.25;;
27495;SDS011;14929;51.336;9.416;2022-12-07T14:47:29;3.55;;;3.00;;
27495;SDS011;14929;51.336;9.416;2022-12-07T14:49:56;3.83;;;2.97;;
27495;SDS011;14929;51.336;9.416;2022-12-07T14:52:26;5.53;;;2.90;;
27495;SDS011;14929;51.336;9.416;2022-12-07T14:54:58;4.40;;;3.15;;
27495;SDS011;14929;51.336;9.416;2022-12-07T14:57:25;3.10;;;2.47;;
27495;SDS011;14929;51.336;9.416;2022-12-07T14:59:53;3.40;;;2.72;;
27495;SDS011;14929;51.336;9.416;2022-12-07T15:02:20;4.63;;;2.78;;
27495;SDS011;14929;51.336;9.416;2022-12-07T15:04:48;3.25;;;2.88;;
27495;SDS011;14929;51.336;9.416;2022-12-07T15:07:19;2.63;;;2.42;;
27495;SDS011;14929;51.336;9.416;2022-12-07T15:09:50;2.58;;;2.38;;
27495;SDS011;14929;51.336;9.416;2022-12-07T15:12:17;7.05;;;3.50;;
27495;SDS011;14929;51.336;9.416;2022-12-07T15:14:45;2.50;;;2.05;;
27495;SDS011;14929;51.336;9.416;2022-12-07T15:17:12;2.60;;;2.40;;
27495;SDS011;14929;51.336;9.416;2022-12-07T15:19:40;3.92;;;2.90;;
27495;SDS011;14929;51.336;9.416;2022-12-07T15:22:08;4.78;;;3.05;;
27495;SDS011;14929;51.336;9.416;2022-12-07T15:24:35;2.97;;;2.60;;
27495;SDS011;14929;51.336;9.416;2022-12-07T15:27:05;4.10;;;3.22;;
27495;SDS011;14929;51.336;9.416;2022-12-07T15:29:34;5.88;;;3.75;;
27495;SDS011;14929;51.336;9.416;2022-12-07T15:32:02;3.97;;;3.60;;
27495;SDS011;14929;51.336;9.416;2022-12-07T15:34:29;8.70;;;3.45;;
27495;SDS011;14929;51.336;9.416;2022-12-07T15:36:57;3.83;;;2.95;;
27495;SDS011;14929;51.336;9.416;2022-12-07T15:39:24;2.70;;;2.50;;
27495;SDS011;14929;51.336;9.416;2022-12-07T15:41:52;4.30;;;3.00;;
27495;SDS011;14929;51.336;9.416;2022-12-07T15:44:21;5.05;;;3.15;;
27495;SDS011;14929;51.336;9.416;2022-12-07T15:47:06;7.85;;;3.60;;
27495;SDS011;14929;51.336;9.416;2022-12-07T15:49:33;4.05;;;2.75;;